Time;durP1;ratioP1;P1;durP2;ratioP2;P2;SDS_P1;SDS_P2;PMS_P1;PMS_P2;Temp;Humidity;BMP_temperature;BMP_pressure;BME280_temperature;BME280_humidity;BME280_pressure;Samples;Min_cycle;Max_cycle;Signal;HPM_P1;HPM_P2
2021/01/26 07:00:12;;;;;;;26.58;11.93;;;;;;;;;;5009812;28;20384;-72
2021/01/26 07:02:37;;;;;;;28.70;12.35;;;;;;;;;;4986627;28;20041;-69
2021/01/26 07:05:12;;;;;;;21.55;11.45;;;;;;;;;;4978081;28;20022;-68
2021/01/26 07:07:41;;;;;;;21.52;10.50;;;;;;;;;;4976094;28;20490;-68
2021/01/26 07:10:08;;;;;;;21.10;10.95;;;;;;;;;;4974746;28;20019;-68
2021/01/26 07:12:43;;;;;;;27.77;12.27;;;;;;;;;;4980875;28;20019;-68
2021/01/26 07:15:16;;;;;;;21.95;10.88;;;;;;;;;;4987949;28;20141;-68
2021/01/26 07:17:42;;;;;;;23.98;11.27;;;;;;;;;;4981113;28;20050;-68
2021/01/26 07:20:08;;;;;;;23.27;11.05;;;;;;;;;;4977979;28;20059;-67
2021/01/26 07:22:33;;;;;;;22.88;11.50;;;;;;;;;;4987532;28;20074;-67
2021/01/26 07:25:04;;;;;;;21.77;11.35;;;;;;;;;;4977684;28;20026;-67
2021/01/26 07:27:39;;;;;;;25.83;12.45;;;;;;;;;;4988223;28;20030;-67
2021/01/26 07:30:10;;;;;;;24.30;11.60;;;;;;;;;;4987313;28;20655;-66
2021/01/26 07:32:38;;;;;;;24.25;12.23;;;;;;;;;;4975676;28;20434;-68
2021/01/26 07:35:04;;;;;;;25.45;12.27;;;;;;;;;;4986953;28;20029;-69
2021/01/26 07:37:37;;;;;;;21.83;11.38;;;;;;;;;;4997548;28;20022;-69
2021/01/26 07:40:06;;;;;;;26.30;12.85;;;;;;;;;;4980788;28;20053;-69
2021/01/26 07:42:35;;;;;;;21.48;11.05;;;;;;;;;;4993264;28;20023;-69
2021/01/26 07:45:06;;;;;;;23.25;12.15;;;;;;;;;;4992383;28;20109;-69
2021/01/26 07:47:35;;;;;;;24.83;11.55;;;;;;;;;;4997187;28;20029;-71
2021/01/26 07:50:10;;;;;;;24.02;11.68;;;;;;;;;;4983406;28;20022;-70
2021/01/26 07:52:36;;;;;;;21.67;12.32;;;;;;;;;;4986126;28;20035;-69
2021/01/26 07:55:06;;;;;;;24.35;11.85;;;;;;;;;;4994667;28;20360;-69
2021/01/26 07:57:41;;;;;;;25.10;12.45;;;;;;;;;;4975226;28;20101;-75
2021/01/26 08:00:08;;;;;;;22.58;11.73;;;;;;;;;;5000253;28;20050;-73
2021/01/26 08:02:36;;;;;;;25.40;12.48;;;;;;;;;;5014386;28;20022;-68
2021/01/26 08:05:11;;;;;;;23.83;12.15;;;;;;;;;;5022348;28;20013;-69
2021/01/26 08:07:36;;;;;;;23.75;11.80;;;;;;;;;;4998609;28;20022;-70
2021/01/26 08:10:04;;;;;;;22.85;12.02;;;;;;;;;;4996033;28;20029;-71
2021/01/26 08:12:30;;;;;;;20.27;10.65;;;;;;;;;;4988733;28;20030;-69
2021/01/26 08:15:00;;;;;;;23.02;12.73;;;;;;;;;;4977141;28;20022;-71
2021/01/26 08:17:30;;;;;;;24.05;11.93;;;;;;;;;;4993258;28;20036;-70
2021/01/26 08:20:05;;;;;;;22.27;12.38;;;;;;;;;;4993227;28;20054;-71
2021/01/26 08:22:33;;;;;;;22.75;12.23;;;;;;;;;;4992482;28;20025;-69
2021/01/26 08:25:02;;;;;;;21.88;12.18;;;;;;;;;;4989174;28;20046;-71
2021/01/26 08:27:28;;;;;;;18.33;10.98;;;;;;;;;;4999721;28;20022;-71
2021/01/26 08:29:55;;;;;;;21.33;11.88;;;;;;;;;;5005517;28;20475;-72
2021/01/26 08:32:30;;;;;;;21.08;12.52;;;;;;;;;;4982036;28;20439;-71
2021/01/26 08:35:14;;;;;;;21.63;12.02;;;;;;;;;;4983937;28;20013;-73
2021/01/26 08:37:44;;;;;;;19.40;12.10;;;;;;;;;;4991691;28;20034;-72
2021/01/26 08:40:19;;;;;;;25.05;12.70;;;;;;;;;;5010458;28;20022;-72
2021/01/26 08:42:47;;;;;;;25.00;13.15;;;;;;;;;;4998790;28;20473;-72
2021/01/26 08:45:23;;;;;;;22.80;12.50;;;;;;;;;;5012686;28;20398;-74
2021/01/26 08:47:49;;;;;;;21.25;12.60;;;;;;;;;;5003153;28;20775;-75
2021/01/26 08:50:15;;;;;;;21.90;11.45;;;;;;;;;;4998601;28;20031;-75
2021/01/26 08:52:41;;;;;;;21.45;12.68;;;;;;;;;;5001220;28;20015;-75
2021/01/26 08:55:07;;;;;;;20.63;12.68;;;;;;;;;;5001675;28;20414;-74
2021/01/26 08:57:32;;;;;;;23.75;12.05;;;;;;;;;;5003489;28;20029;-74
2021/01/26 08:59:59;;;;;;;22.48;13.38;;;;;;;;;;4982904;28;20034;-74
2021/01/26 09:02:33;;;;;;;22.20;13.00;;;;;;;;;;4997865;28;20034;-73
2021/01/26 09:04:59;;;;;;;21.73;11.95;;;;;;;;;;4984055;28;20022;-67
2021/01/26 09:07:34;;;;;;;24.50;13.50;;;;;;;;;;4981185;28;20029;-64
2021/01/26 09:09:59;;;;;;;22.13;12.82;;;;;;;;;;4986787;28;20515;-66
2021/01/26 09:12:25;;;;;;;18.20;11.15;;;;;;;;;;4991551;28;20034;-64
2021/01/26 09:14:52;;;;;;;20.77;12.30;;;;;;;;;;4986767;28;20022;-65
2021/01/26 09:17:18;;;;;;;23.08;11.95;;;;;;;;;;4987935;28;20030;-64
2021/01/26 09:19:46;;;;;;;18.23;11.93;;;;;;;;;;4987268;28;20030;-64
2021/01/26 09:22:17;;;;;;;18.70;11.32;;;;;;;;;;4984325;28;20108;-64
2021/01/26 09:24:43;;;;;;;31.63;11.75;;;;;;;;;;4991483;28;20045;-63
2021/01/26 09:27:17;;;;;;;22.02;12.18;;;;;;;;;;4989878;28;20263;-65
2021/01/26 09:29:42;;;;;;;26.10;10.90;;;;;;;;;;5000635;28;20025;-63
2021/01/26 09:32:08;;;;;;;18.48;11.90;;;;;;;;;;5011095;28;20072;-64
2021/01/26 09:34:34;;;;;;;18.88;11.70;;;;;;;;;;4994542;28;20391;-65
2021/01/26 09:37:09;;;;;;;19.70;11.38;;;;;;;;;;5001696;28;20068;-64
2021/01/26 09:39:34;;;;;;;19.92;10.70;;;;;;;;;;4983332;28;20033;-65
2021/01/26 09:42:06;;;;;;;19.70;10.85;;;;;;;;;;4986601;28;20018;-64
2021/01/26 09:44:31;;;;;;;18.35;11.00;;;;;;;;;;4994673;28;20014;-65
2021/01/26 09:46:59;;;;;;;19.15;11.75;;;;;;;;;;5000951;28;20026;-64
2021/01/26 09:49:27;;;;;;;18.27;11.30;;;;;;;;;;5004034;28;20061;-64
2021/01/26 09:51:57;;;;;;;21.42;12.05;;;;;;;;;;4998915;28;20027;-65
2021/01/26 09:54:26;;;;;;;21.35;11.93;;;;;;;;;;5007197;28;20030;-64
2021/01/26 09:56:52;;;;;;;16.83;10.98;;;;;;;;;;4995016;28;20071;-64
2021/01/26 09:59:18;;;;;;;18.50;10.82;;;;;;;;;;5003747;28;20046;-64
2021/01/26 10:01:45;;;;;;;20.00;11.65;;;;;;;;;;5003020;28;20108;-65
2021/01/26 10:04:12;;;;;;;20.77;12.15;;;;;;;;;;4993126;28;20041;-63
2021/01/26 10:06:38;;;;;;;20.95;10.82;;;;;;;;;;4992816;28;20029;-63
2021/01/26 10:09:13;;;;;;;15.70;10.30;;;;;;;;;;4975209;28;20574;-64
2021/01/26 10:11:39;;;;;;;17.70;9.75;;;;;;;;;;4989349;28;20105;-64
2021/01/26 10:14:15;;;;;;;16.08;9.00;;;;;;;;;;5004581;28;20029;-63
2021/01/26 10:16:44;;;;;;;14.18;8.57;;;;;;;;;;4989268;28;20014;-63
2021/01/26 10:19:12;;;;;;;13.55;8.25;;;;;;;;;;4977253;28;20030;-65
2021/01/26 10:21:39;;;;;;;14.27;7.70;;;;;;;;;;4996033;28;20029;-64
2021/01/26 10:24:06;;;;;;;13.07;8.35;;;;;;;;;;5005577;28;20508;-63
2021/01/26 10:26:34;;;;;;;13.02;7.93;;;;;;;;;;4994520;28;20353;-64
2021/01/26 10:29:11;;;;;;;12.40;8.27;;;;;;;;;;4998732;28;20029;-63
2021/01/26 10:31:48;;;;;;;12.95;7.63;;;;;;;;;;5001918;28;20050;-64
2021/01/26 10:34:23;;;;;;;10.68;6.85;;;;;;;;;;5005935;28;20060;-63
2021/01/26 10:36:48;;;;;;;13.07;8.43;;;;;;;;;;5012778;28;20018;-63
2021/01/26 10:39:23;;;;;;;12.75;7.03;;;;;;;;;;5011435;28;20041;-64
2021/01/26 10:41:56;;;;;;;10.43;6.40;;;;;;;;;;5011823;28;20025;-63
2021/01/26 10:44:21;;;;;;;12.50;8.00;;;;;;;;;;4994493;28;20540;-63
2021/01/26 10:46:47;;;;;;;131.43;10.75;;;;;;;;;;5011049;28;20034;-63
2021/01/26 10:49:22;;;;;;;9.93;6.15;;;;;;;;;;5011459;28;20033;-63
2021/01/26 10:51:47;;;;;;;12.13;6.05;;;;;;;;;;5012222;28;20080;-65
2021/01/26 10:54:13;;;;;;;11.07;6.25;;;;;;;;;;4981799;28;20388;-64
2021/01/26 10:56:38;;;;;;;10.07;6.45;;;;;;;;;;4986934;28;20030;-64
2021/01/26 10:59:04;;;;;;;10.13;5.80;;;;;;;;;;4990847;28;20050;-63
2021/01/26 11:01:30;;;;;;;10.65;6.97;;;;;;;;;;5000674;28;20034;-64
2021/01/26 11:03:57;;;;;;;13.07;6.55;;;;;;;;;;5004019;28;20030;-64
2021/01/26 11:06:23;;;;;;;10.23;5.88;;;;;;;;;;4993674;28;20046;-63
2021/01/26 11:08:49;;;;;;;12.63;6.90;;;;;;;;;;4990188;28;20388;-64
2021/01/26 11:11:15;;;;;;;14.63;6.70;;;;;;;;;;4981236;28;20053;-64
2021/01/26 11:13:41;;;;;;;11.40;5.85;;;;;;;;;;4989587;28;20022;-63
2021/01/26 11:16:06;;;;;;;14.48;7.00;;;;;;;;;;4980935;28;20027;-64
2021/01/26 11:18:31;;;;;;;18.00;7.60;;;;;;;;;;4971147;28;20032;-64
2021/01/26 11:20:59;;;;;;;14.95;6.72;;;;;;;;;;4985761;28;20022;-64
2021/01/26 11:23:25;;;;;;;16.17;7.07;;;;;;;;;;4984232;28;20106;-63
2021/01/26 11:25:51;;;;;;;13.30;7.10;;;;;;;;;;4986709;28;20423;-64
2021/01/26 11:28:16;;;;;;;14.75;7.28;;;;;;;;;;4993839;28;20069;-63
2021/01/26 11:30:42;;;;;;;14.05;7.22;;;;;;;;;;4978410;28;20030;-63
2021/01/26 11:33:08;;;;;;;11.77;7.45;;;;;;;;;;4992885;28;20029;-63
2021/01/26 11:35:34;;;;;;;12.82;6.35;;;;;;;;;;4982709;28;20041;-64
2021/01/26 11:38:00;;;;;;;13.10;7.35;;;;;;;;;;4975232;28;20113;-65
2021/01/26 11:40:25;;;;;;;12.20;6.53;;;;;;;;;;4981542;28;20479;-66
2021/01/26 11:42:51;;;;;;;13.32;6.82;;;;;;;;;;5003625;28;20037;-65
2021/01/26 11:45:19;;;;;;;13.35;7.47;;;;;;;;;;4998564;28;20032;-63
2021/01/26 11:47:44;;;;;;;13.18;7.40;;;;;;;;;;4989700;28;20031;-65
2021/01/26 11:50:11;;;;;;;13.88;7.75;;;;;;;;;;5005937;28;20040;-65
2021/01/26 11:52:37;;;;;;;12.93;7.03;;;;;;;;;;4998323;28;20101;-65
2021/01/26 11:55:04;;;;;;;11.68;7.00;;;;;;;;;;5008311;28;20514;-66
2021/01/26 11:57:29;;;;;;;12.13;7.30;;;;;;;;;;5003703;28;20030;-65
2021/01/26 11:59:55;;;;;;;13.25;7.78;;;;;;;;;;4997323;28;20057;-65
2021/01/26 12:02:20;;;;;;;12.55;7.30;;;;;;;;;;4984836;28;20037;-64
2021/01/26 12:04:46;;;;;;;14.40;7.60;;;;;;;;;;5005547;28;20018;-65
2021/01/26 12:07:11;;;;;;;13.02;7.03;;;;;;;;;;5007026;28;20026;-66
2021/01/26 12:09:36;;;;;;;13.57;7.45;;;;;;;;;;5002860;28;20463;-66
2021/01/26 12:12:02;;;;;;;11.45;6.95;;;;;;;;;;5002852;28;20045;-66
2021/01/26 12:14:27;;;;;;;11.57;6.78;;;;;;;;;;4995962;28;20482;-65
2021/01/26 12:16:53;;;;;;;14.65;7.57;;;;;;;;;;5009704;28;20022;-70
2021/01/26 12:19:19;;;;;;;14.73;7.15;;;;;;;;;;4985746;28;20025;-71
2021/01/26 12:21:44;;;;;;;18.58;7.25;;;;;;;;;;5002304;28;20022;-70
2021/01/26 12:24:10;;;;;;;12.30;7.18;;;;;;;;;;5009713;28;20030;-70
2021/01/26 12:26:35;;;;;;;10.65;6.50;;;;;;;;;;4996134;28;20426;-70
2021/01/26 12:29:01;;;;;;;13.18;6.55;;;;;;;;;;5007095;28;20037;-70
2021/01/26 12:31:26;;;;;;;12.77;6.90;;;;;;;;;;5002168;28;20145;-70
2021/01/26 12:33:52;;;;;;;12.45;6.78;;;;;;;;;;4999617;28;20109;-69
2021/01/26 12:36:17;;;;;;;11.00;6.55;;;;;;;;;;5000238;28;20021;-69
2021/01/26 12:38:43;;;;;;;9.55;5.82;;;;;;;;;;4984167;28;20026;-70
2021/01/26 12:41:08;;;;;;;14.07;6.53;;;;;;;;;;4980068;28;20510;-71
2021/01/26 12:43:34;;;;;;;12.38;6.35;;;;;;;;;;4999654;28;20022;-71
2021/01/26 12:45:59;;;;;;;14.52;6.28;;;;;;;;;;5007839;28;20022;-71
2021/01/26 12:48:25;;;;;;;12.18;6.35;;;;;;;;;;4980296;28;20033;-70
2021/01/26 12:50:50;;;;;;;13.15;6.38;;;;;;;;;;4979358;28;20022;-73
2021/01/26 12:53:16;;;;;;;10.38;5.60;;;;;;;;;;4998180;28;20089;-72
2021/01/26 12:55:41;;;;;;;9.80;6.00;;;;;;;;;;5000251;28;20113;-68
2021/01/26 12:58:08;;;;;;;11.82;6.05;;;;;;;;;;4992081;28;20058;-68
2021/01/26 13:00:34;;;;;;;9.88;5.50;;;;;;;;;;5008668;28;20348;-68
2021/01/26 13:02:59;;;;;;;11.93;5.82;;;;;;;;;;4997565;28;20072;-69
2021/01/26 13:05:28;;;;;;;10.85;5.80;;;;;;;;;;4984761;28;20030;-66
2021/01/26 13:07:55;;;;;;;10.25;5.45;;;;;;;;;;4989821;28;20026;-66
2021/01/26 13:10:21;;;;;;;8.05;4.93;;;;;;;;;;5000615;28;20026;-66
2021/01/26 13:12:47;;;;;;;10.85;6.00;;;;;;;;;;4997055;28;20029;-67
2021/01/26 13:15:13;;;;;;;10.82;5.90;;;;;;;;;;5012951;28;20048;-73
2021/01/26 13:17:39;;;;;;;10.13;5.85;;;;;;;;;;5006313;28;20566;-66
2021/01/26 13:20:06;;;;;;;10.63;5.90;;;;;;;;;;4990386;28;20124;-67
2021/01/26 13:22:31;;;;;;;7.75;4.82;;;;;;;;;;4990187;28;20018;-66
2021/01/26 13:24:57;;;;;;;9.45;5.07;;;;;;;;;;4991278;28;20375;-65
2021/01/26 13:27:22;;;;;;;11.25;6.28;;;;;;;;;;4997785;28;20034;-66
2021/01/26 13:29:48;;;;;;;8.75;5.50;;;;;;;;;;4997000;28;20478;-65
2021/01/26 13:32:14;;;;;;;9.93;5.68;;;;;;;;;;4996811;28;20024;-69
2021/01/26 13:34:42;;;;;;;11.57;5.35;;;;;;;;;;5009565;28;20015;-68
2021/01/26 13:37:08;;;;;;;9.05;5.72;;;;;;;;;;4987091;28;20029;-69
2021/01/26 13:39:33;;;;;;;13.07;7.55;;;;;;;;;;4980331;28;20026;-72
2021/01/26 13:41:59;;;;;;;13.18;7.80;;;;;;;;;;4981905;28;20550;-72
2021/01/26 13:44:24;;;;;;;13.43;7.63;;;;;;;;;;4986197;28;20022;-70
2021/01/26 13:46:50;;;;;;;9.07;6.07;;;;;;;;;;4993580;28;20018;-71
2021/01/26 13:49:16;;;;;;;12.00;6.03;;;;;;;;;;4991437;28;20022;-72
2021/01/26 13:51:41;;;;;;;11.35;6.68;;;;;;;;;;4972361;28;20011;-72
2021/01/26 13:54:06;;;;;;;11.88;5.88;;;;;;;;;;5005413;28;20017;-71
2021/01/26 13:56:32;;;;;;;11.73;6.15;;;;;;;;;;4992184;28;20025;-70
2021/01/26 13:58:58;;;;;;;11.73;5.40;;;;;;;;;;4989914;28;20041;-71
2021/01/26 14:01:24;;;;;;;14.43;6.85;;;;;;;;;;4983945;28;20054;-71
2021/01/26 14:03:50;;;;;;;11.85;7.03;;;;;;;;;;4982443;28;20030;-70
2021/01/26 14:06:16;;;;;;;11.05;6.38;;;;;;;;;;4991989;28;20027;-73
2021/01/26 14:08:41;;;;;;;15.05;8.02;;;;;;;;;;4987641;28;20501;-70
2021/01/26 14:11:07;;;;;;;13.50;8.18;;;;;;;;;;4977388;28;20107;-71
2021/01/26 14:13:32;;;;;;;12.13;6.82;;;;;;;;;;4978223;28;20376;-71
2021/01/26 14:15:58;;;;;;;14.45;7.75;;;;;;;;;;4990430;28;20073;-72
2021/01/26 14:18:23;;;;;;;13.85;8.57;;;;;;;;;;5001304;28;20117;-69
2021/01/26 14:20:48;;;;;;;16.25;8.82;;;;;;;;;;5001867;28;20033;-68
2021/01/26 14:23:14;;;;;;;14.43;8.57;;;;;;;;;;4995554;28;20030;-69
2021/01/26 14:25:39;;;;;;;32.72;8.48;;;;;;;;;;5003538;28;20010;-72
2021/01/26 14:28:05;;;;;;;17.65;8.63;;;;;;;;;;5007174;28;20072;-70
2021/01/26 14:30:31;;;;;;;20.88;9.32;;;;;;;;;;4987620;28;20494;-73
2021/01/26 14:32:57;;;;;;;17.35;9.30;;;;;;;;;;5000727;28;20466;-71
2021/01/26 14:35:24;;;;;;;17.58;9.73;;;;;;;;;;4976876;28;20031;-71
2021/01/26 14:37:50;;;;;;;19.67;10.13;;;;;;;;;;4982870;28;20023;-72
2021/01/26 14:40:15;;;;;;;22.35;11.10;;;;;;;;;;4980896;28;20105;-71
2021/01/26 14:42:41;;;;;;;18.50;9.77;;;;;;;;;;5008723;28;20018;-77
2021/01/26 14:45:07;;;;;;;18.20;8.95;;;;;;;;;;4998384;28;20478;-76
2021/01/26 14:47:34;;;;;;;16.70;9.40;;;;;;;;;;4999237;28;20479;-77
2021/01/26 14:50:00;;;;;;;18.52;9.20;;;;;;;;;;4970457;28;20061;-73
2021/01/26 14:52:26;;;;;;;15.45;9.48;;;;;;;;;;5010459;28;20467;-73
2021/01/26 14:54:51;;;;;;;23.30;10.27;;;;;;;;;;4995856;28;20029;-70
2021/01/26 14:57:17;;;;;;;16.25;8.70;;;;;;;;;;5003290;28;20022;-73
2021/01/26 14:59:42;;;;;;;18.75;9.48;;;;;;;;;;5003424;28;20055;-73
2021/01/26 15:02:08;;;;;;;24.10;6.80;;;;;;;;;;4996960;28;20029;-70
2021/01/26 15:04:33;;;;;;;16.52;8.35;;;;;;;;;;5007083;28;20029;-62
2021/01/26 15:06:59;;;;;;;18.77;8.32;;;;;;;;;;4985152;28;20045;-60
2021/01/26 15:09:24;;;;;;;16.13;8.60;;;;;;;;;;4979667;28;20114;-60
2021/01/26 15:11:50;;;;;;;24.42;9.02;;;;;;;;;;4984884;28;20046;-60
2021/01/26 15:14:17;;;;;;;19.42;9.38;;;;;;;;;;4992172;28;20080;-59
2021/01/26 15:16:42;;;;;;;18.27;8.93;;;;;;;;;;4983436;28;20053;-60
2021/01/26 15:19:07;;;;;;;21.50;9.60;;;;;;;;;;4980979;28;20060;-59
2021/01/26 15:21:34;;;;;;;23.08;10.55;;;;;;;;;;5002109;28;20022;-59
2021/01/26 15:24:00;;;;;;;25.75;11.15;;;;;;;;;;5001326;28;20030;-60
2021/01/26 15:26:25;;;;;;;23.13;10.85;;;;;;;;;;4996598;28;20360;-69
2021/01/26 15:28:50;;;;;;;29.45;11.82;;;;;;;;;;5009086;28;20475;-70
2021/01/26 15:31:16;;;;;;;17.30;9.05;;;;;;;;;;5003174;28;20388;-72
2021/01/26 15:33:43;;;;;;;18.88;9.90;;;;;;;;;;5003990;28;20485;-69
2021/01/26 15:36:09;;;;;;;22.58;11.02;;;;;;;;;;5009600;28;20018;-71
2021/01/26 15:38:34;;;;;;;28.80;11.85;;;;;;;;;;4999281;28;20030;-71
2021/01/26 15:41:00;;;;;;;22.67;10.48;;;;;;;;;;5116935;23;20058;-70
2021/01/26 15:43:26;;;;;;;23.17;12.13;;;;;;;;;;4985266;28;20022;-69
2021/01/26 15:45:51;;;;;;;19.63;11.15;;;;;;;;;;4994079;28;20010;-70
2021/01/26 15:48:17;;;;;;;24.45;10.98;;;;;;;;;;4978812;28;20026;-73
2021/01/26 15:50:44;;;;;;;22.00;11.98;;;;;;;;;;4994130;28;20471;-70
2021/01/26 15:53:10;;;;;;;21.33;10.57;;;;;;;;;;4993576;28;20030;-71
2021/01/26 15:55:35;;;;;;;24.30;12.10;;;;;;;;;;4983664;28;20031;-71
2021/01/26 15:58:01;;;;;;;26.63;12.93;;;;;;;;;;4989666;28;20386;-71
2021/01/26 16:00:27;;;;;;;36.33;13.68;;;;;;;;;;4979110;28;20022;-71
2021/01/26 16:02:52;;;;;;;31.30;13.90;;;;;;;;;;4988810;28;20054;-70
2021/01/26 16:05:18;;;;;;;29.05;13.25;;;;;;;;;;4983598;28;20022;-71
2021/01/26 16:07:43;;;;;;;27.63;12.98;;;;;;;;;;4965914;28;20033;-71
2021/01/26 16:10:10;;;;;;;33.55;13.55;;;;;;;;;;4988467;28;20030;-69
2021/01/26 16:12:37;;;;;;;24.95;11.70;;;;;;;;;;4978246;28;20475;-70
2021/01/26 16:15:04;;;;;;;25.05;11.82;;;;;;;;;;4987577;28;20031;-71
2021/01/26 16:17:31;;;;;;;21.55;10.88;;;;;;;;;;4985171;28;20544;-71
2021/01/26 16:19:56;;;;;;;23.98;11.45;;;;;;;;;;4980160;28;20633;-70
2021/01/26 16:22:22;;;;;;;25.95;12.15;;;;;;;;;;4991293;28;20097;-70
2021/01/26 16:24:47;;;;;;;47.38;14.63;;;;;;;;;;4979103;28;20007;-71
2021/01/26 16:27:13;;;;;;;39.50;14.55;;;;;;;;;;4994374;28;20030;-72
2021/01/26 16:29:38;;;;;;;32.55;13.50;;;;;;;;;;4983927;28;20468;-73
2021/01/26 16:32:04;;;;;;;35.00;12.38;;;;;;;;;;4987419;28;20594;-72
2021/01/26 16:34:29;;;;;;;32.65;13.60;;;;;;;;;;4977352;28;20377;-72
2021/01/26 16:36:56;;;;;;;35.55;13.45;;;;;;;;;;4988440;28;20108;-73
2021/01/26 16:39:21;;;;;;;43.03;16.20;;;;;;;;;;4983050;28;20018;-73
2021/01/26 16:41:47;;;;;;;44.80;17.33;;;;;;;;;;4982313;28;20114;-72
2021/01/26 16:44:12;;;;;;;49.40;21.67;;;;;;;;;;4990708;28;20068;-70
2021/01/26 16:46:38;;;;;;;51.70;20.10;;;;;;;;;;4976567;28;20021;-71
2021/01/26 16:49:03;;;;;;;65.82;22.60;;;;;;;;;;4988007;28;20026;-72
2021/01/26 16:51:29;;;;;;;46.35;18.45;;;;;;;;;;4983338;28;20025;-71
2021/01/26 16:53:55;;;;;;;44.85;19.58;;;;;;;;;;4980877;28;20118;-71
2021/01/26 16:56:21;;;;;;;40.90;16.95;;;;;;;;;;4992868;28;20506;-70
2021/01/26 16:58:46;;;;;;;46.17;18.08;;;;;;;;;;4978826;28;20383;-72
2021/01/26 17:01:12;;;;;;;39.13;15.45;;;;;;;;;;4986415;28;20047;-72
2021/01/26 17:03:39;;;;;;;34.08;16.15;;;;;;;;;;4985560;28;20021;-70
2021/01/26 17:06:06;;;;;;;32.30;13.02;;;;;;;;;;4979975;28;20070;-71
2021/01/26 17:08:31;;;;;;;25.55;11.40;;;;;;;;;;4994962;28;20049;-74
2021/01/26 17:10:57;;;;;;;26.25;11.40;;;;;;;;;;4987432;28;20019;-72
2021/01/26 17:13:23;;;;;;;24.27;10.48;;;;;;;;;;4989249;28;20118;-73
2021/01/26 17:15:51;;;;;;;26.77;11.50;;;;;;;;;;4988281;28;20010;-73
2021/01/26 17:18:17;;;;;;;31.10;12.07;;;;;;;;;;4987629;28;20022;-75
2021/01/26 17:20:44;;;;;;;27.45;11.90;;;;;;;;;;4992463;28;20101;-72
2021/01/26 17:23:11;;;;;;;30.23;12.43;;;;;;;;;;4985199;28;20015;-73
2021/01/26 17:25:39;;;;;;;26.58;11.68;;;;;;;;;;4984137;28;20513;-72
2021/01/26 17:28:07;;;;;;;25.90;11.55;;;;;;;;;;4992596;28;20475;-71
2021/01/26 17:30:32;;;;;;;25.25;10.82;;;;;;;;;;4977063;28;20035;-71
2021/01/26 17:32:58;;;;;;;25.90;11.35;;;;;;;;;;4987977;28;20017;-70
2021/01/26 17:35:23;;;;;;;26.55;12.10;;;;;;;;;;4982491;28;20614;-69
2021/01/26 17:37:49;;;;;;;36.42;13.48;;;;;;;;;;4980965;28;20025;-72
2021/01/26 17:40:14;;;;;;;69.35;18.45;;;;;;;;;;4987978;28;20018;-71
2021/01/26 17:42:41;;;;;;;66.78;19.00;;;;;;;;;;4975084;28;20129;-73
2021/01/26 17:45:08;;;;;;;57.63;17.38;;;;;;;;;;4968880;28;20029;-72
2021/01/26 17:47:34;;;;;;;33.17;12.63;;;;;;;;;;4984198;28;20117;-70
2021/01/26 17:49:59;;;;;;;28.58;13.57;;;;;;;;;;4993588;28;20058;-70
2021/01/26 17:52:25;;;;;;;22.58;12.65;;;;;;;;;;4993725;28;20109;-70
